sensor_id;sensor_type;location;lat;lon;timestamp;temperature;humidity
26575;DHT22;67165;50.256;10.978;2024-03-25T00:02:10;5.00;98.00
26575;DHT22;67165;50.256;10.978;2024-03-25T00:04:36;5.00;98.00
26575;DHT22;67165;50.256;10.978;2024-03-25T00:07:02;5.00;98.00
26575;DHT22;67165;50.256;10.978;2024-03-25T00:09:28;5.00;98.00
26575;DHT22;67165;50.256;10.978;2024-03-25T00:11:54;5.00;98.00
26575;DHT22;67165;50.256;10.978;2024-03-25T00:14:23;4.90;98.00
26575;DHT22;67165;50.256;10.978;2024-03-25T00:16:49;4.90;98.00
26575;DHT22;67165;50.256;10.978;2024-03-25T00:19:15;4.90;98.00
26575;DHT22;67165;50.256;10.978;2024-03-25T00:21:40;4.90;98.00
26575;DHT22;67165;50.256;10.978;2024-03-25T00:24:07;4.90;98.00
26575;DHT22;67165;50.256;10.978;2024-03-25T00:26:33;4.90;98.00
26575;DHT22;67165;50.256;10.978;2024-03-25T00:28:59;4.90;98.00
26575;DHT22;67165;50.256;10.978;2024-03-25T00:31:25;4.80;98.00
26575;DHT22;67165;50.256;10.978;2024-03-25T00:33:51;4.80;98.00
26575;DHT22;67165;50.256;10.978;2024-03-25T00:36:17;4.90;98.00
26575;DHT22;67165;50.256;10.978;2024-03-25T00:38:43;4.90;98.00
26575;DHT22;67165;50.256;10.978;2024-03-25T00:41:09;4.90;98.00
26575;DHT22;67165;50.256;10.978;2024-03-25T00:43:35;4.90;98.00
26575;DHT22;67165;50.256;10.978;2024-03-25T00:46:01;4.90;98.00
26575;DHT22;67165;50.256;10.978;2024-03-25T00:48:26;4.90;98.00
26575;DHT22;67165;50.256;10.978;2024-03-25T00:50:52;5.00;98.00
26575;DHT22;67165;50.256;10.978;2024-03-25T00:53:18;4.90;98.00
26575;DHT22;67165;50.256;10.978;2024-03-25T00:55:44;5.00;98.00
26575;DHT22;67165;50.256;10.978;2024-03-25T00:58:10;4.90;98.00
26575;DHT22;67165;50.256;10.978;2024-03-25T01:00:36;4.90;98.00
26575;DHT22;67165;50.256;10.978;2024-03-25T01:03:02;4.90;98.00
26575;DHT22;67165;50.256;10.978;2024-03-25T01:05:27;5.00;98.00
26575;DHT22;67165;50.256;10.978;2024-03-25T01:07:53;4.90;98.00
26575;DHT22;67165;50.256;10.978;2024-03-25T01:10:19;4.90;98.00
26575;DHT22;67165;50.256;10.978;2024-03-25T01:12:46;5.00;98.00
26575;DHT22;67165;50.256;10.978;2024-03-25T01:15:12;5.00;98.00
26575;DHT22;67165;50.256;10.978;2024-03-25T01:17:37;5.00;98.00
26575;DHT22;67165;50.256;10.978;2024-03-25T01:20:04;5.00;98.00
26575;DHT22;67165;50.256;10.978;2024-03-25T01:22:34;5.00;98.00
26575;DHT22;67165;50.256;10.978;2024-03-25T01:25:00;5.00;98.00
26575;DHT22;67165;50.256;10.978;2024-03-25T01:27:26;5.00;98.00
26575;DHT22;67165;50.256;10.978;2024-03-25T01:29:51;5.00;98.00
26575;DHT22;67165;50.256;10.978;2024-03-25T01:32:17;5.00;98.00
26575;DHT22;67165;50.256;10.978;2024-03-25T01:34:43;5.00;98.00
26575;DHT22;67165;50.256;10.978;2024-03-25T01:37:09;5.00;98.00
26575;DHT22;67165;50.256;10.978;2024-03-25T01:39:35;5.00;98.00
26575;DHT22;67165;50.256;10.978;2024-03-25T01:42:00;5.00;98.00
26575;DHT22;67165;50.256;10.978;2024-03-25T01:44:27;5.00;98.00
26575;DHT22;67165;50.256;10.978;2024-03-25T01:46:53;5.00;98.00
26575;DHT22;67165;50.256;10.978;2024-03-25T01:49:20;5.00;98.00
26575;DHT22;67165;50.256;10.978;2024-03-25T01:51:46;5.00;98.00
26575;DHT22;67165;50.256;10.978;2024-03-25T01:54:13;5.10;98.00
26575;DHT22;67165;50.256;10.978;2024-03-25T01:56:42;5.00;98.00
26575;DHT22;67165;50.256;10.978;2024-03-25T01:59:09;5.00;98.00
26575;DHT22;67165;50.256;10.978;2024-03-25T02:01:35;4.90;98.00
26575;DHT22;67165;50.256;10.978;2024-03-25T02:04:02;4.90;98.00
26575;DHT22;67165;50.256;10.978;2024-03-25T02:06:28;4.90;98.00
26575;DHT22;67165;50.256;10.978;2024-03-25T02:08:56;4.80;98.00
26575;DHT22;67165;50.256;10.978;2024-03-25T02:11:22;4.80;98.00
26575;DHT22;67165;50.256;10.978;2024-03-25T02:13:52;4.90;98.00
26575;DHT22;67165;50.256;10.978;2024-03-25T02:16:18;4.90;98.00
26575;DHT22;67165;50.256;10.978;2024-03-25T02:18:43;4.80;98.00
26575;DHT22;67165;50.256;10.978;2024-03-25T02:21:10;4.80;98.00
26575;DHT22;67165;50.256;10.978;2024-03-25T02:23:38;4.80;98.00
26575;DHT22;67165;50.256;10.978;2024-03-25T02:26:04;4.80;98.00
26575;DHT22;67165;50.256;10.978;2024-03-25T02:28:30;4.80;98.00
26575;DHT22;67165;50.256;10.978;2024-03-25T02:30:56;4.80;98.00
26575;DHT22;67165;50.256;10.978;2024-03-25T02:33:21;4.80;98.00
26575;DHT22;67165;50.256;10.978;2024-03-25T02:35:47;4.80;98.00
26575;DHT22;67165;50.256;10.978;2024-03-25T02:38:13;4.80;98.00
26575;DHT22;67165;50.256;10.978;2024-03-25T02:40:41;4.80;98.00
26575;DHT22;67165;50.256;10.978;2024-03-25T02:43:06;4.80;98.00
26575;DHT22;67165;50.256;10.978;2024-03-25T02:45:33;4.90;98.00
26575;DHT22;67165;50.256;10.978;2024-03-25T02:47:59;4.80;98.00
26575;DHT22;67165;50.256;10.978;2024-03-25T02:50:24;4.80;98.00
26575;DHT22;67165;50.256;10.978;2024-03-25T02:52:50;4.70;98.00
26575;DHT22;67165;50.256;10.978;2024-03-25T02:55:16;4.80;98.00
26575;DHT22;67165;50.256;10.978;2024-03-25T02:57:41;4.80;98.00
26575;DHT22;67165;50.256;10.978;2024-03-25T03:00:08;4.70;98.00
26575;DHT22;67165;50.256;10.978;2024-03-25T03:02:34;4.70;98.00
26575;DHT22;67165;50.256;10.978;2024-03-25T03:05:00;4.70;98.00
26575;DHT22;67165;50.256;10.978;2024-03-25T03:07:28;4.80;98.00
26575;DHT22;67165;50.256;10.978;2024-03-25T03:09:53;4.70;98.00
26575;DHT22;67165;50.256;10.978;2024-03-25T03:12:19;4.70;98.00
26575;DHT22;67165;50.256;10.978;2024-03-25T03:14:45;4.70;98.00
26575;DHT22;67165;50.256;10.978;2024-03-25T03:17:11;4.60;98.00
26575;DHT22;67165;50.256;10.978;2024-03-25T03:19:36;4.60;98.00
26575;DHT22;67165;50.256;10.978;2024-03-25T03:22:02;4.60;98.00
26575;DHT22;67165;50.256;10.978;2024-03-25T03:24:28;4.60;98.00
26575;DHT22;67165;50.256;10.978;2024-03-25T03:26:54;4.60;98.00
26575;DHT22;67165;50.256;10.978;2024-03-25T03:29:20;4.60;98.00
26575;DHT22;67165;50.256;10.978;2024-03-25T03:31:45;4.60;98.00
26575;DHT22;67165;50.256;10.978;2024-03-25T03:34:11;4.60;98.00
26575;DHT22;67165;50.256;10.978;2024-03-25T03:36:37;4.50;98.00
26575;DHT22;67165;50.256;10.978;2024-03-25T03:39:03;4.50;98.00
26575;DHT22;67165;50.256;10.978;2024-03-25T03:41:29;4.50;98.00
26575;DHT22;67165;50.256;10.978;2024-03-25T03:43:54;4.50;98.00
26575;DHT22;67165;50.256;10.978;2024-03-25T03:46:20;4.50;98.00
26575;DHT22;67165;50.256;10.978;2024-03-25T03:48:46;4.50;98.00
26575;DHT22;67165;50.256;10.978;2024-03-25T03:51:12;4.50;98.00
26575;DHT22;67165;50.256;10.978;2024-03-25T03:53:37;4.50;98.00
26575;DHT22;67165;50.256;10.978;2024-03-25T03:56:04;4.60;98.00
26575;DHT22;67165;50.256;10.978;2024-03-25T03:58:34;4.50;98.00
26575;DHT22;67165;50.256;10.978;2024-03-25T04:01:00;4.50;98.00
26575;DHT22;67165;50.256;10.978;2024-03-25T04:03:26;4.50;98.00
26575;DHT22;67165;50.256;10.978;2024-03-25T04:05:52;4.60;98.00
26575;DHT22;67165;50.256;10.978;2024-03-25T04:08:18;4.60;98.00
26575;DHT22;67165;50.256;10.978;2024-03-25T04:10:45;4.60;98.00
26575;DHT22;67165;50.256;10.978;2024-03-25T04:13:11;4.60;98.00
26575;DHT22;67165;50.256;10.978;2024-03-25T04:15:39;4.50;98.00
26575;DHT22;67165;50.256;10.978;2024-03-25T04:18:05;4.50;98.00
26575;DHT22;67165;50.256;10.978;2024-03-25T04:20:39;4.50;98.00
26575;DHT22;67165;50.256;10.978;2024-03-25T04:23:05;4.50;98.00
26575;DHT22;67165;50.256;10.978;2024-03-25T04:25:33;4.40;98.00
26575;DHT22;67165;50.256;10.978;2024-03-25T04:27:59;4.40;98.00
26575;DHT22;67165;50.256;10.978;2024-03-25T04:30:25;4.50;98.00
26575;DHT22;67165;50.256;10.978;2024-03-25T04:32:51;4.50;98.00
26575;DHT22;67165;50.256;10.978;2024-03-25T04:35:17;4.40;98.00
26575;DHT22;67165;50.256;10.978;2024-03-25T04:37:43;4.40;98.00
26575;DHT22;67165;50.256;10.978;2024-03-25T04:40:09;4.40;98.00
26575;DHT22;67165;50.256;10.978;2024-03-25T04:42:35;4.40;98.00
26575;DHT22;67165;50.256;10.978;2024-03-25T04:45:02;4.40;98.00
26575;DHT22;67165;50.256;10.978;2024-03-25T04:47:27;4.40;98.00
26575;DHT22;67165;50.256;10.978;2024-03-25T04:49:53;4.40;98.00
26575;DHT22;67165;50.256;10.978;2024-03-25T04:52:19;4.40;98.00
26575;DHT22;67165;50.256;10.978;2024-03-25T04:54:49;4.40;98.00
26575;DHT22;67165;50.256;10.978;2024-03-25T04:57:15;4.40;98.00
26575;DHT22;67165;50.256;10.978;2024-03-25T04:59:40;4.40;98.00
26575;DHT22;67165;50.256;10.978;2024-03-25T05:02:06;4.40;98.00
26575;DHT22;67165;50.256;10.978;2024-03-25T05:04:32;4.40;98.00
26575;DHT22;67165;50.256;10.978;2024-03-25T05:06:58;4.40;98.00
26575;DHT22;67165;50.256;10.978;2024-03-25T05:09:23;4.40;98.00
26575;DHT22;67165;50.256;10.978;2024-03-25T05:11:49;4.40;98.00
26575;DHT22;67165;50.256;10.978;2024-03-25T05:14:15;4.40;98.00
26575;DHT22;67165;50.256;10.978;2024-03-25T05:16:41;4.40;98.00
26575;DHT22;67165;50.256;10.978;2024-03-25T05:19:06;4.40;98.00
26575;DHT22;67165;50.256;10.978;2024-03-25T05:21:32;4.30;98.00
26575;DHT22;67165;50.256;10.978;2024-03-25T05:23:58;4.30;98.00
26575;DHT22;67165;50.256;10.978;2024-03-25T05:26:24;4.30;98.00
26575;DHT22;67165;50.256;10.978;2024-03-25T05:28:57;4.40;98.00
26575;DHT22;67165;50.256;10.978;2024-03-25T05:31:23;4.40;98.00
26575;DHT22;67165;50.256;10.978;2024-03-25T05:33:49;4.40;98.00
26575;DHT22;67165;50.256;10.978;2024-03-25T05:36:15;4.40;98.00
26575;DHT22;67165;50.256;10.978;2024-03-25T05:38:41;4.50;98.00
26575;DHT22;67165;50.256;10.978;2024-03-25T05:41:08;4.40;98.00
26575;DHT22;67165;50.256;10.978;2024-03-25T05:43:34;4.40;98.00
26575;DHT22;67165;50.256;10.978;2024-03-25T05:46:00;4.50;98.00
26575;DHT22;67165;50.256;10.978;2024-03-25T05:48:26;4.50;98.00
26575;DHT22;67165;50.256;10.978;2024-03-25T05:51:03;4.50;98.00
26575;DHT22;67165;50.256;10.978;2024-03-25T05:53:31;4.50;98.00
26575;DHT22;67165;50.256;10.978;2024-03-25T05:55:57;4.60;98.00
26575;DHT22;67165;50.256;10.978;2024-03-25T05:58:24;4.60;98.00
26575;DHT22;67165;50.256;10.978;2024-03-25T06:00:50;4.60;98.00
26575;DHT22;67165;50.256;10.978;2024-03-25T06:03:16;4.70;98.00
26575;DHT22;67165;50.256;10.978;2024-03-25T06:05:45;4.70;98.00
26575;DHT22;67165;50.256;10.978;2024-03-25T06:08:11;4.70;98.00
26575;DHT22;67165;50.256;10.978;2024-03-25T06:10:53;4.70;98.00
26575;DHT22;67165;50.256;10.978;2024-03-25T06:13:21;4.80;98.00
26575;DHT22;67165;50.256;10.978;2024-03-25T06:15:47;4.90;98.00
26575;DHT22;67165;50.256;10.978;2024-03-25T06:18:13;4.90;98.00
26575;DHT22;67165;50.256;10.978;2024-03-25T06:20:38;4.90;98.00
26575;DHT22;67165;50.256;10.978;2024-03-25T06:23:04;5.00;98.00
26575;DHT22;67165;50.256;10.978;2024-03-25T06:25:30;4.90;98.00
26575;DHT22;67165;50.256;10.978;2024-03-25T06:27:56;5.00;98.00
26575;DHT22;67165;50.256;10.978;2024-03-25T06:30:22;5.00;98.00
26575;DHT22;67165;50.256;10.978;2024-03-25T06:33:07;5.00;98.00
26575;DHT22;67165;50.256;10.978;2024-03-25T06:35:51;5.00;98.00
26575;DHT22;67165;50.256;10.978;2024-03-25T06:38:17;5.10;98.00
26575;DHT22;67165;50.256;10.978;2024-03-25T06:40:45;5.00;98.00
26575;DHT22;67165;50.256;10.978;2024-03-25T06:43:11;5.10;98.00
26575;DHT22;67165;50.256;10.978;2024-03-25T06:45:37;5.00;98.00
26575;DHT22;67165;50.256;10.978;2024-03-25T06:48:03;5.10;98.00
26575;DHT22;67165;50.256;10.978;2024-03-25T06:50:29;5.10;98.00
26575;DHT22;67165;50.256;10.978;2024-03-25T06:52:54;5.20;98.00
26575;DHT22;67165;50.256;10.978;2024-03-25T06:55:20;5.20;98.00
26575;DHT22;67165;50.256;10.978;2024-03-25T06:57:48;5.30;98.00
26575;DHT22;67165;50.256;10.978;2024-03-25T07:00:14;5.30;98.00
26575;DHT22;67165;50.256;10.978;2024-03-25T07:02:40;5.40;98.00
26575;DHT22;67165;50.256;10.978;2024-03-25T07:05:06;5.40;98.00
26575;DHT22;67165;50.256;10.978;2024-03-25T07:07:32;5.50;98.00
26575;DHT22;67165;50.256;10.978;2024-03-25T07:10:00;5.60;98.00
26575;DHT22;67165;50.256;10.978;2024-03-25T07:12:25;5.60;98.00
26575;DHT22;67165;50.256;10.978;2024-03-25T07:14:51;5.70;98.00
26575;DHT22;67165;50.256;10.978;2024-03-25T07:17:17;5.70;98.00
26575;DHT22;67165;50.256;10.978;2024-03-25T07:19:42;5.70;98.00
26575;DHT22;67165;50.256;10.978;2024-03-25T07:22:09;5.70;98.00
26575;DHT22;67165;50.256;10.978;2024-03-25T07:24:34;5.80;98.00
26575;DHT22;67165;50.256;10.978;2024-03-25T07:27:00;5.90;98.00
26575;DHT22;67165;50.256;10.978;2024-03-25T07:29:26;6.00;98.00
26575;DHT22;67165;50.256;10.978;2024-03-25T07:31:51;6.10;98.00
26575;DHT22;67165;50.256;10.978;2024-03-25T07:34:18;6.10;98.00
26575;DHT22;67165;50.256;10.978;2024-03-25T07:36:44;6.20;98.00
26575;DHT22;67165;50.256;10.978;2024-03-25T07:39:10;6.30;98.00
26575;DHT22;67165;50.256;10.978;2024-03-25T07:41:38;6.30;98.00
26575;DHT22;67165;50.256;10.978;2024-03-25T07:44:04;6.30;98.00
26575;DHT22;67165;50.256;10.978;2024-03-25T07:46:30;6.30;98.00
26575;DHT22;67165;50.256;10.978;2024-03-25T07:48:56;6.30;98.00
26575;DHT22;67165;50.256;10.978;2024-03-25T07:51:22;6.40;98.00
26575;DHT22;67165;50.256;10.978;2024-03-25T07:53:47;6.40;98.00
26575;DHT22;67165;50.256;10.978;2024-03-25T07:56:15;6.40;98.00
26575;DHT22;67165;50.256;10.978;2024-03-25T07:58:41;6.50;98.00
26575;DHT22;67165;50.256;10.978;2024-03-25T08:01:07;6.50;98.00
26575;DHT22;67165;50.256;10.978;2024-03-25T08:03:33;6.50;98.00
26575;DHT22;67165;50.256;10.978;2024-03-25T08:05:59;6.50;98.00
26575;DHT22;67165;50.256;10.978;2024-03-25T08:08:25;6.60;98.00
26575;DHT22;67165;50.256;10.978;2024-03-25T08:10:50;6.50;98.00
26575;DHT22;67165;50.256;10.978;2024-03-25T08:13:18;6.60;98.00
26575;DHT22;67165;50.256;10.978;2024-03-25T08:15:45;6.70;98.00
26575;DHT22;67165;50.256;10.978;2024-03-25T08:18:11;6.70;98.00
26575;DHT22;67165;50.256;10.978;2024-03-25T08:20:37;6.90;98.00
26575;DHT22;67165;50.256;10.978;2024-03-25T08:23:03;6.80;98.00
26575;DHT22;67165;50.256;10.978;2024-03-25T08:25:29;6.90;98.00
26575;DHT22;67165;50.256;10.978;2024-03-25T08:27:55;6.90;98.00
26575;DHT22;67165;50.256;10.978;2024-03-25T08:30:21;7.00;98.00
26575;DHT22;67165;50.256;10.978;2024-03-25T08:32:46;7.00;98.00
26575;DHT22;67165;50.256;10.978;2024-03-25T08:35:12;7.10;98.00
26575;DHT22;67165;50.256;10.978;2024-03-25T08:37:38;7.10;98.00
26575;DHT22;67165;50.256;10.978;2024-03-25T08:40:04;7.20;98.00
26575;DHT22;67165;50.256;10.978;2024-03-25T08:42:30;7.30;98.00
26575;DHT22;67165;50.256;10.978;2024-03-25T08:44:56;7.50;98.00
26575;DHT22;67165;50.256;10.978;2024-03-25T08:47:22;7.70;98.00
26575;DHT22;67165;50.256;10.978;2024-03-25T08:49:48;7.90;98.00
26575;DHT22;67165;50.256;10.978;2024-03-25T08:52:13;7.90;98.00
26575;DHT22;67165;50.256;10.978;2024-03-25T08:54:39;8.00;98.00
26575;DHT22;67165;50.256;10.978;2024-03-25T08:57:05;7.80;98.00
26575;DHT22;67165;50.256;10.978;2024-03-25T08:59:31;7.90;98.00
26575;DHT22;67165;50.256;10.978;2024-03-25T09:01:56;7.90;98.00
26575;DHT22;67165;50.256;10.978;2024-03-25T09:04:22;8.10;98.00
26575;DHT22;67165;50.256;10.978;2024-03-25T09:06:48;8.20;98.00
26575;DHT22;67165;50.256;10.978;2024-03-25T09:09:14;8.20;98.00
26575;DHT22;67165;50.256;10.978;2024-03-25T09:11:58;8.00;98.00
26575;DHT22;67165;50.256;10.978;2024-03-25T09:14:24;8.00;98.00
26575;DHT22;67165;50.256;10.978;2024-03-25T09:16:50;7.90;98.00
26575;DHT22;67165;50.256;10.978;2024-03-25T09:19:16;7.90;98.00
26575;DHT22;67165;50.256;10.978;2024-03-25T09:21:41;8.00;98.00
26575;DHT22;67165;50.256;10.978;2024-03-25T09:24:07;7.90;98.00
26575;DHT22;67165;50.256;10.978;2024-03-25T09:26:34;7.80;98.00
26575;DHT22;67165;50.256;10.978;2024-03-25T09:28:59;7.80;98.00
26575;DHT22;67165;50.256;10.978;2024-03-25T09:31:26;7.80;98.00
26575;DHT22;67165;50.256;10.978;2024-03-25T09:33:52;8.00;98.00
26575;DHT22;67165;50.256;10.978;2024-03-25T09:36:18;8.00;98.00
26575;DHT22;67165;50.256;10.978;2024-03-25T09:38:43;8.10;98.00
26575;DHT22;67165;50.256;10.978;2024-03-25T09:41:09;8.20;98.00
26575;DHT22;67165;50.256;10.978;2024-03-25T09:43:56;8.40;98.00
26575;DHT22;67165;50.256;10.978;2024-03-25T09:46:23;8.60;98.00
26575;DHT22;67165;50.256;10.978;2024-03-25T09:48:51;8.50;98.00
26575;DHT22;67165;50.256;10.978;2024-03-25T09:51:17;8.80;98.00
26575;DHT22;67165;50.256;10.978;2024-03-25T09:53:44;9.00;98.00
26575;DHT22;67165;50.256;10.978;2024-03-25T09:56:10;9.20;98.00
26575;DHT22;67165;50.256;10.978;2024-03-25T09:58:36;9.30;98.00
26575;DHT22;67165;50.256;10.978;2024-03-25T10:01:02;9.30;98.00
26575;DHT22;67165;50.256;10.978;2024-03-25T10:03:28;9.20;98.00
26575;DHT22;67165;50.256;10.978;2024-03-25T10:05:54;9.10;98.00
26575;DHT22;67165;50.256;10.978;2024-03-25T10:08:21;9.20;98.00
26575;DHT22;67165;50.256;10.978;2024-03-25T10:10:46;9.20;98.00
26575;DHT22;67165;50.256;10.978;2024-03-25T10:13:12;9.20;98.00
26575;DHT22;67165;50.256;10.978;2024-03-25T10:15:38;9.20;98.00
26575;DHT22;67165;50.256;10.978;2024-03-25T10:18:03;9.40;98.00
26575;DHT22;67165;50.256;10.978;2024-03-25T10:20:29;9.70;98.00
26575;DHT22;67165;50.256;10.978;2024-03-25T10:22:55;9.80;98.00
26575;DHT22;67165;50.256;10.978;2024-03-25T10:25:31;9.90;98.00
26575;DHT22;67165;50.256;10.978;2024-03-25T10:27:58;10.00;98.00
26575;DHT22;67165;50.256;10.978;2024-03-25T10:30:25;9.80;98.00
26575;DHT22;67165;50.256;10.978;2024-03-25T10:33:04;9.60;98.00
26575;DHT22;67165;50.256;10.978;2024-03-25T10:35:33;9.30;98.00
26575;DHT22;67165;50.256;10.978;2024-03-25T10:38:01;9.20;98.00
26575;DHT22;67165;50.256;10.978;2024-03-25T10:40:34;8.80;98.00
26575;DHT22;67165;50.256;10.978;2024-03-25T10:43:02;8.80;98.00
26575;DHT22;67165;50.256;10.978;2024-03-25T10:45:34;8.60;98.00
26575;DHT22;67165;50.256;10.978;2024-03-25T10:48:19;8.60;98.00
26575;DHT22;67165;50.256;10.978;2024-03-25T10:50:46;8.70;98.00
26575;DHT22;67165;50.256;10.978;2024-03-25T10:53:14;8.80;98.00
26575;DHT22;67165;50.256;10.978;2024-03-25T10:55:42;8.80;98.00
26575;DHT22;67165;50.256;10.978;2024-03-25T10:58:10;8.80;98.00
26575;DHT22;67165;50.256;10.978;2024-03-25T11:00:37;8.70;98.00
26575;DHT22;67165;50.256;10.978;2024-03-25T11:03:04;8.70;98.00
26575;DHT22;67165;50.256;10.978;2024-03-25T11:05:30;8.60;98.00
26575;DHT22;67165;50.256;10.978;2024-03-25T11:07:55;8.60;98.00
26575;DHT22;67165;50.256;10.978;2024-03-25T11:10:29;8.50;98.00
26575;DHT22;67165;50.256;10.978;2024-03-25T11:12:55;8.30;98.00
26575;DHT22;67165;50.256;10.978;2024-03-25T11:15:21;8.30;98.00
26575;DHT22;67165;50.256;10.978;2024-03-25T11:17:50;8.40;98.00
26575;DHT22;67165;50.256;10.978;2024-03-25T11:20:17;8.60;98.00
26575;DHT22;67165;50.256;10.978;2024-03-25T11:22:52;8.70;98.00
26575;DHT22;67165;50.256;10.978;2024-03-25T11:25:20;8.80;98.00
26575;DHT22;67165;50.256;10.978;2024-03-25T11:27:46;9.00;98.00
26575;DHT22;67165;50.256;10.978;2024-03-25T11:30:13;9.20;98.00
26575;DHT22;67165;50.256;10.978;2024-03-25T11:32:54;9.40;98.00
26575;DHT22;67165;50.256;10.978;2024-03-25T11:35:19;9.70;98.00
26575;DHT22;67165;50.256;10.978;2024-03-25T11:37:46;10.10;98.00
26575;DHT22;67165;50.256;10.978;2024-03-25T11:40:13;10.20;98.00
26575;DHT22;67165;50.256;10.978;2024-03-25T11:42:43;10.30;98.00
26575;DHT22;67165;50.256;10.978;2024-03-25T11:45:15;10.20;98.00
26575;DHT22;67165;50.256;10.978;2024-03-25T11:47:45;10.00;98.00
26575;DHT22;67165;50.256;10.978;2024-03-25T11:50:16;9.70;98.00
26575;DHT22;67165;50.256;10.978;2024-03-25T11:52:42;9.70;98.00
26575;DHT22;67165;50.256;10.978;2024-03-25T11:55:09;9.70;98.00
26575;DHT22;67165;50.256;10.978;2024-03-25T11:57:36;9.70;98.00
26575;DHT22;67165;50.256;10.978;2024-03-25T12:00:03;9.70;98.00
26575;DHT22;67165;50.256;10.978;2024-03-25T12:02:31;9.70;98.00
26575;DHT22;67165;50.256;10.978;2024-03-25T12:04:57;9.80;98.00
26575;DHT22;67165;50.256;10.978;2024-03-25T12:07:23;9.80;98.00
26575;DHT22;67165;50.256;10.978;2024-03-25T12:09:49;9.80;98.00
26575;DHT22;67165;50.256;10.978;2024-03-25T12:12:33;10.00;98.00
26575;DHT22;67165;50.256;10.978;2024-03-25T12:15:00;10.00;98.00
26575;DHT22;67165;50.256;10.978;2024-03-25T12:17:30;10.00;98.00
26575;DHT22;67165;50.256;10.978;2024-03-25T12:20:04;10.00;98.00
26575;DHT22;67165;50.256;10.978;2024-03-25T12:22:30;10.00;98.00
26575;DHT22;67165;50.256;10.978;2024-03-25T12:25:00;9.90;98.00
26575;DHT22;67165;50.256;10.978;2024-03-25T12:27:28;9.70;98.00
26575;DHT22;67165;50.256;10.978;2024-03-25T12:30:01;9.70;98.00
26575;DHT22;67165;50.256;10.978;2024-03-25T12:32:37;9.70;98.00
26575;DHT22;67165;50.256;10.978;2024-03-25T12:35:06;9.80;98.00
26575;DHT22;67165;50.256;10.978;2024-03-25T12:37:32;9.80;98.00
26575;DHT22;67165;50.256;10.978;2024-03-25T12:39:59;9.80;98.00
26575;DHT22;67165;50.256;10.978;2024-03-25T12:42:25;9.80;98.00
26575;DHT22;67165;50.256;10.978;2024-03-25T12:44:53;9.60;98.00
26575;DHT22;67165;50.256;10.978;2024-03-25T12:47:19;9.60;98.00
26575;DHT22;67165;50.256;10.978;2024-03-25T12:49:45;9.60;98.00
26575;DHT22;67165;50.256;10.978;2024-03-25T12:52:11;9.80;98.00
26575;DHT22;67165;50.256;10.978;2024-03-25T12:54:37;10.00;98.00
26575;DHT22;67165;50.256;10.978;2024-03-25T12:57:03;10.20;98.00
26575;DHT22;67165;50.256;10.978;2024-03-25T12:59:29;10.40;98.00
26575;DHT22;67165;50.256;10.978;2024-03-25T13:01:55;10.50;98.00
26575;DHT22;67165;50.256;10.978;2024-03-25T13:04:21;10.60;98.00
26575;DHT22;67165;50.256;10.978;2024-03-25T13:06:46;10.60;98.00
26575;DHT22;67165;50.256;10.978;2024-03-25T13:09:12;10.60;98.00
26575;DHT22;67165;50.256;10.978;2024-03-25T13:11:38;10.60;98.00
26575;DHT22;67165;50.256;10.978;2024-03-25T13:14:04;10.40;98.00
26575;DHT22;67165;50.256;10.978;2024-03-25T13:16:33;10.10;98.00
26575;DHT22;67165;50.256;10.978;2024-03-25T13:18:59;10.00;98.00
26575;DHT22;67165;50.256;10.978;2024-03-25T13:21:25;9.90;98.00
26575;DHT22;67165;50.256;10.978;2024-03-25T13:23:52;9.80;98.00
26575;DHT22;67165;50.256;10.978;2024-03-25T13:26:18;9.70;98.00
26575;DHT22;67165;50.256;10.978;2024-03-25T13:28:43;9.60;98.00
26575;DHT22;67165;50.256;10.978;2024-03-25T13:31:09;9.60;98.00
26575;DHT22;67165;50.256;10.978;2024-03-25T13:33:35;9.60;98.00
26575;DHT22;67165;50.256;10.978;2024-03-25T13:36:04;9.60;98.00
26575;DHT22;67165;50.256;10.978;2024-03-25T13:38:30;9.50;98.00
26575;DHT22;67165;50.256;10.978;2024-03-25T13:40:55;9.40;98.00
26575;DHT22;67165;50.256;10.978;2024-03-25T13:43:21;9.40;98.00
26575;DHT22;67165;50.256;10.978;2024-03-25T13:45:49;9.50;98.00
26575;DHT22;67165;50.256;10.978;2024-03-25T13:48:15;9.60;98.00
26575;DHT22;67165;50.256;10.978;2024-03-25T13:50:42;9.70;98.00
26575;DHT22;67165;50.256;10.978;2024-03-25T13:53:08;10.00;98.00
26575;DHT22;67165;50.256;10.978;2024-03-25T13:55:34;10.10;98.00
26575;DHT22;67165;50.256;10.978;2024-03-25T13:58:00;10.10;98.00
26575;DHT22;67165;50.256;10.978;2024-03-25T14:00:26;10.30;98.00
26575;DHT22;67165;50.256;10.978;2024-03-25T14:02:54;10.50;98.00
26575;DHT22;67165;50.256;10.978;2024-03-25T14:05:20;10.60;98.00
26575;DHT22;67165;50.256;10.978;2024-03-25T14:07:46;10.70;98.00
26575;DHT22;67165;50.256;10.978;2024-03-25T14:10:12;10.80;98.00
26575;DHT22;67165;50.256;10.978;2024-03-25T14:12:38;10.80;98.00
26575;DHT22;67165;50.256;10.978;2024-03-25T14:15:04;10.70;98.00
26575;DHT22;67165;50.256;10.978;2024-03-25T14:17:30;10.70;98.00
26575;DHT22;67165;50.256;10.978;2024-03-25T14:19:56;10.60;98.00
26575;DHT22;67165;50.256;10.978;2024-03-25T14:22:22;10.50;98.00
26575;DHT22;67165;50.256;10.978;2024-03-25T14:24:48;10.50;98.00
26575;DHT22;67165;50.256;10.978;2024-03-25T14:27:14;10.50;98.00
26575;DHT22;67165;50.256;10.978;2024-03-25T14:29:40;10.50;98.00
26575;DHT22;67165;50.256;10.978;2024-03-25T14:32:08;10.30;98.00
26575;DHT22;67165;50.256;10.978;2024-03-25T14:34:34;10.10;98.00
26575;DHT22;67165;50.256;10.978;2024-03-25T14:37:00;10.10;98.00
26575;DHT22;67165;50.256;10.978;2024-03-25T14:39:27;9.90;98.00
26575;DHT22;67165;50.256;10.978;2024-03-25T14:41:53;9.80;98.00
26575;DHT22;67165;50.256;10.978;2024-03-25T14:44:19;9.80;98.00
26575;DHT22;67165;50.256;10.978;2024-03-25T14:46:45;9.80;98.00
26575;DHT22;67165;50.256;10.978;2024-03-25T14:49:10;9.70;98.00
26575;DHT22;67165;50.256;10.978;2024-03-25T14:51:36;9.70;98.00
26575;DHT22;67165;50.256;10.978;2024-03-25T14:54:02;10.10;98.00
26575;DHT22;67165;50.256;10.978;2024-03-25T14:56:29;10.30;98.00
26575;DHT22;67165;50.256;10.978;2024-03-25T14:58:55;10.40;98.00
26575;DHT22;67165;50.256;10.978;2024-03-25T15:01:21;10.40;98.00
26575;DHT22;67165;50.256;10.978;2024-03-25T15:03:47;10.30;98.00
26575;DHT22;67165;50.256;10.978;2024-03-25T15:06:13;10.40;98.00
26575;DHT22;67165;50.256;10.978;2024-03-25T15:08:39;10.40;98.00
26575;DHT22;67165;50.256;10.978;2024-03-25T15:11:06;10.40;98.00
26575;DHT22;67165;50.256;10.978;2024-03-25T15:13:32;10.50;98.00
26575;DHT22;67165;50.256;10.978;2024-03-25T15:15:57;10.30;98.00
26575;DHT22;67165;50.256;10.978;2024-03-25T15:18:23;10.20;98.00
26575;DHT22;67165;50.256;10.978;2024-03-25T15:21:03;10.20;98.00
26575;DHT22;67165;50.256;10.978;2024-03-25T15:23:30;10.20;98.00
26575;DHT22;67165;50.256;10.978;2024-03-25T15:25:57;10.00;98.00